Time;durP1;ratioP1;P1;durP2;ratioP2;P2;SDS_P1;SDS_P2;PMS_P1;PMS_P2;Temp;Humidity;BMP_temperature;BMP_pressure;BME280_temperature;BME280_humidity;BME280_pressure;Samples;Min_cycle;Max_cycle;Signal;HPM_P1;HPM_P2
2021/12/23 00:02:07;;;;;;;5.57;3.53;;;20.20;45.30;;;;;;5032407;28;20045;-65
2021/12/23 00:04:33;;;;;;;5.13;3.45;;;20.20;45.40;;;;;;5032897;28;20129;-65
2021/12/23 00:06:58;;;;;;;6.00;3.60;;;20.20;45.30;;;;;;5032625;28;20044;-66
2021/12/23 00:09:34;;;;;;;6.82;3.42;;;20.30;45.40;;;;;;5032080;28;20892;-66
2021/12/23 00:12:00;;;;;;;5.47;3.28;;;20.20;45.30;;;;;;5031371;28;20042;-65
2021/12/23 00:14:25;;;;;;;6.40;3.50;;;20.20;45.40;;;;;;5031524;28;20152;-66
2021/12/23 00:17:16;;;;;;;5.38;3.45;;;20.20;45.30;;;;;;5030697;28;20501;-65
2021/12/23 00:19:47;;;;;;;6.18;3.60;;;20.20;45.20;;;;;;5032581;28;20429;-65
2021/12/23 00:24:57;;;;;;;6.30;3.42;;;20.10;45.30;;;;;;5032139;28;20049;-65
2021/12/23 00:27:22;;;;;;;5.65;3.47;;;20.10;45.30;;;;;;5032830;28;20041;-65
2021/12/23 00:29:48;;;;;;;6.22;3.95;;;20.10;45.30;;;;;;5032358;28;20092;-65
2021/12/23 00:32:14;;;;;;;5.93;3.72;;;20.10;45.30;;;;;;5032081;28;20045;-65
2021/12/23 00:34:39;;;;;;;5.97;3.80;;;20.10;45.40;;;;;;5032762;28;20041;-65
2021/12/23 00:37:09;;;;;;;6.60;3.60;;;20.00;45.20;;;;;;5047618;28;20195;-65
2021/12/23 00:39:34;;;;;;;5.57;3.60;;;20.00;45.20;;;;;;5030588;28;20046;-65
2021/12/23 00:42:06;;;;;;;6.55;4.05;;;20.00;45.20;;;;;;5047615;28;20378;-65
2021/12/23 00:44:33;;;;;;;6.50;3.78;;;20.00;45.20;;;;;;5047361;28;20041;-66
2021/12/23 00:46:59;;;;;;;5.47;3.53;;;20.00;45.20;;;;;;5032221;28;20095;-65
2021/12/23 00:49:24;;;;;;;5.38;3.13;;;20.00;45.20;;;;;;5047847;28;20117;-65
2021/12/23 00:51:50;;;;;;;6.10;3.72;;;20.00;45.10;;;;;;5046786;28;20075;-65
2021/12/23 00:54:15;;;;;;;6.38;3.35;;;19.90;45.00;;;;;;5032816;28;20041;-65
2021/12/23 00:56:41;;;;;;;5.60;3.55;;;19.90;45.10;;;;;;5031142;28;20053;-65
2021/12/23 00:59:07;;;;;;;5.88;3.25;;;19.90;45.10;;;;;;5046833;28;20053;-66
2021/12/23 01:01:32;;;;;;;6.63;3.78;;;19.90;45.10;;;;;;5031070;28;20060;-65
2021/12/23 01:03:58;;;;;;;5.57;3.22;;;19.90;45.10;;;;;;5047684;28;20042;-65
2021/12/23 01:06:23;;;;;;;5.22;3.10;;;19.90;45.10;;;;;;5030157;28;20042;-65
2021/12/23 01:08:49;;;;;;;6.15;3.92;;;19.90;45.20;;;;;;5047178;28;20077;-65
2021/12/23 01:11:14;;;;;;;5.68;3.42;;;19.90;45.10;;;;;;5031092;28;20092;-65
2021/12/23 01:13:47;;;;;;;7.07;3.78;;;19.90;45.10;;;;;;5030840;28;20046;-65
2021/12/23 01:16:24;;;;;;;5.13;3.20;;;19.90;45.20;;;;;;5032460;28;20117;-65
2021/12/23 01:18:54;;;;;;;5.68;3.25;;;19.90;45.20;;;;;;5030241;28;20113;-65
2021/12/23 01:21:19;;;;;;;5.38;3.42;;;19.90;45.20;;;;;;5031754;28;20120;-65
2021/12/23 01:23:46;;;;;;;5.50;3.67;;;19.90;45.10;;;;;;5046964;28;20113;-65
2021/12/23 01:26:17;;;;;;;5.38;3.47;;;19.90;45.10;;;;;;5019653;28;20054;-65
2021/12/23 01:28:42;;;;;;;6.63;3.60;;;19.90;45.10;;;;;;5011614;28;20080;-65
2021/12/23 01:31:08;;;;;;;5.47;3.75;;;19.90;45.10;;;;;;5012284;28;20050;-65
2021/12/23 01:33:33;;;;;;;6.05;3.28;;;19.90;45.00;;;;;;5029642;28;20042;-65
2021/12/23 01:35:59;;;;;;;5.43;3.17;;;19.90;45.10;;;;;;5031084;28;20169;-65
2021/12/23 01:38:24;;;;;;;7.20;3.83;;;19.90;45.10;;;;;;5030942;28;20103;-65
2021/12/23 01:40:50;;;;;;;5.20;3.25;;;19.90;45.10;;;;;;5014620;28;20050;-65
2021/12/23 01:43:17;;;;;;;4.50;2.95;;;19.90;45.10;;;;;;5023125;28;20050;-65
2021/12/23 01:45:47;;;;;;;6.30;3.15;;;19.90;45.10;;;;;;5028026;28;20182;-65
2021/12/23 01:48:13;;;;;;;5.10;3.22;;;20.00;45.20;;;;;;5033291;28;20490;-65
2021/12/23 01:50:39;;;;;;;5.97;3.47;;;20.00;45.10;;;;;;5023879;28;20510;-65
2021/12/23 01:53:05;;;;;;;5.45;3.53;;;19.90;45.00;;;;;;5015317;28;20053;-65
2021/12/23 01:55:30;;;;;;;4.65;2.78;;;19.90;45.00;;;;;;5032809;28;20048;-65
2021/12/23 01:57:56;;;;;;;6.05;3.25;;;19.90;45.10;;;;;;5034996;28;20049;-66
2021/12/23 02:00:25;;;;;;;5.38;3.15;;;19.90;45.00;;;;;;5035379;28;20049;-65
2021/12/23 02:02:51;;;;;;;5.70;3.40;;;20.00;45.10;;;;;;5033201;28;20049;-65
2021/12/23 02:05:17;;;;;;;6.47;3.55;;;20.00;45.10;;;;;;5034000;28;20404;-65
2021/12/23 02:07:43;;;;;;;5.95;3.20;;;20.00;45.10;;;;;;5034738;28;20136;-66
2021/12/23 02:10:08;;;;;;;5.40;3.17;;;20.00;45.20;;;;;;5034277;28;20115;-65
2021/12/23 02:12:34;;;;;;;6.13;3.20;;;20.00;45.10;;;;;;5035266;28;20045;-65
2021/12/23 02:15:00;;;;;;;5.40;3.17;;;20.00;45.10;;;;;;5034409;28;20532;-65
2021/12/23 02:17:25;;;;;;;4.65;3.00;;;20.00;45.10;;;;;;5034625;28;20100;-65
2021/12/23 02:19:52;;;;;;;4.45;2.88;;;20.00;45.20;;;;;;5049697;28;20045;-65
2021/12/23 02:22:18;;;;;;;5.20;3.28;;;20.00;45.20;;;;;;5034324;28;20042;-65
2021/12/23 02:24:43;;;;;;;4.80;2.97;;;20.00;45.10;;;;;;5033902;28;20107;-66
2021/12/23 02:27:10;;;;;;;5.10;3.03;;;20.00;45.10;;;;;;5034883;28;20107;-65
2021/12/23 02:29:35;;;;;;;5.40;3.30;;;20.00;45.20;;;;;;5033746;28;20056;-65
2021/12/23 02:32:01;;;;;;;4.70;3.30;;;20.00;45.20;;;;;;5033081;28;20049;-65
2021/12/23 02:34:26;;;;;;;5.55;3.25;;;20.00;45.20;;;;;;5033398;28;20045;-65
2021/12/23 02:36:53;;;;;;;5.38;3.00;;;20.00;45.10;;;;;;5033200;28;20049;-65
2021/12/23 02:39:19;;;;;;;6.68;3.15;;;20.00;45.20;;;;;;5033368;28;20128;-65
2021/12/23 02:41:45;;;;;;;5.68;3.20;;;20.00;45.20;;;;;;5034339;28;20037;-65
2021/12/23 02:44:12;;;;;;;5.53;3.40;;;20.00;45.10;;;;;;5031180;28;20497;-65
2021/12/23 02:46:37;;;;;;;4.18;3.00;;;20.00;45.10;;;;;;5049584;28;20045;-65
2021/12/23 02:49:03;;;;;;;4.25;2.92;;;20.00;45.10;;;;;;5033692;28;20053;-65
2021/12/23 02:51:28;;;;;;;4.85;3.03;;;20.00;45.10;;;;;;5036764;28;20049;-65
2021/12/23 02:53:54;;;;;;;5.05;3.00;;;20.00;45.10;;;;;;5017542;28;20068;-65
2021/12/23 02:56:20;;;;;;;5.18;3.25;;;20.00;45.80;;;;;;5033497;28;20041;-65
2021/12/23 02:58:46;;;;;;;6.20;3.50;;;20.10;45.20;;;;;;5033184;28;20151;-65
2021/12/23 03:01:12;;;;;;;5.40;2.92;;;20.00;45.00;;;;;;5038781;28;20071;-65
2021/12/23 03:03:37;;;;;;;4.55;3.10;;;20.00;45.00;;;;;;5032654;28;20056;-65
2021/12/23 03:06:03;;;;;;;4.60;3.00;;;20.10;45.00;;;;;;5032136;28;20045;-65
2021/12/23 03:08:31;;;;;;;3.97;2.80;;;20.00;45.00;;;;;;5033063;28;20405;-65
2021/12/23 03:10:57;;;;;;;4.78;3.10;;;20.10;45.00;;;;;;5033551;28;20056;-65
2021/12/23 03:13:22;;;;;;;4.32;3.05;;;20.10;45.10;;;;;;5031693;28;20124;-65
2021/12/23 03:15:48;;;;;;;5.10;2.78;;;20.10;45.10;;;;;;5033822;28;20133;-65
2021/12/23 03:18:13;;;;;;;4.72;3.05;;;20.10;45.20;;;;;;5031955;28;20045;-65
2021/12/23 03:20:39;;;;;;;4.68;2.90;;;20.10;45.10;;;;;;5015954;28;20046;-65
2021/12/23 03:23:04;;;;;;;4.78;2.90;;;20.10;45.20;;;;;;5031998;28;20042;-65
2021/12/23 03:25:30;;;;;;;4.28;2.95;;;20.10;45.10;;;;;;5033616;28;20080;-65
2021/12/23 03:27:55;;;;;;;4.70;3.00;;;20.10;45.10;;;;;;5033171;28;20545;-65
2021/12/23 03:30:21;;;;;;;4.90;2.80;;;20.10;45.20;;;;;;5033655;28;20045;-65
2021/12/23 03:32:46;;;;;;;4.38;3.00;;;20.10;45.20;;;;;;5031943;28;20042;-65
2021/12/23 03:35:12;;;;;;;5.50;2.97;;;20.10;45.10;;;;;;5048663;28;20073;-65
2021/12/23 03:37:37;;;;;;;4.85;3.10;;;20.10;45.10;;;;;;5032645;28;20086;-65
2021/12/23 03:40:04;;;;;;;4.43;2.90;;;20.10;45.10;;;;;;5031985;28;20094;-65
2021/12/23 03:42:30;;;;;;;4.13;2.72;;;20.10;45.10;;;;;;5033281;28;20076;-65
2021/12/23 03:44:55;;;;;;;4.38;3.00;;;20.10;45.10;;;;;;5033247;28;20095;-65
2021/12/23 03:47:21;;;;;;;4.57;2.90;;;20.10;45.00;;;;;;5032740;28;20547;-65
2021/12/23 03:49:46;;;;;;;5.50;2.95;;;20.10;45.00;;;;;;5032526;28;20097;-65
2021/12/23 03:52:12;;;;;;;4.65;3.10;;;20.10;45.00;;;;;;5048698;28;20056;-65
2021/12/23 03:54:37;;;;;;;5.00;2.80;;;20.10;44.90;;;;;;5030893;28;20047;-66
2021/12/23 03:57:03;;;;;;;4.95;2.80;;;20.10;44.90;;;;;;5012753;28;20042;-65
2021/12/23 03:59:28;;;;;;;3.90;2.70;;;20.10;44.90;;;;;;5018487;28;20092;-65
2021/12/23 04:01:54;;;;;;;5.22;3.00;;;20.10;44.90;;;;;;5030451;28;20045;-65
2021/12/23 04:04:20;;;;;;;4.07;2.40;;;20.10;45.00;;;;;;5032930;28;20045;-65
2021/12/23 04:06:45;;;;;;;4.60;2.80;;;20.10;44.90;;;;;;5031235;28;20049;-65
2021/12/23 04:09:11;;;;;;;5.18;2.97;;;20.10;44.90;;;;;;5031026;28;20504;-65
2021/12/23 04:11:36;;;;;;;4.68;3.20;;;20.10;44.90;;;;;;5031763;28;20049;-65
2021/12/23 04:14:02;;;;;;;3.70;2.92;;;20.10;44.90;;;;;;5031251;28;20042;-65
2021/12/23 04:16:27;;;;;;;4.20;2.80;;;20.10;44.80;;;;;;5032458;28;20059;-65
2021/12/23 04:18:54;;;;;;;4.35;2.95;;;20.10;44.90;;;;;;5032753;28;20049;-65
2021/12/23 04:21:20;;;;;;;3.83;2.63;;;20.10;44.90;;;;;;5031062;28;20056;-65
2021/12/23 04:23:45;;;;;;;4.50;2.90;;;20.10;44.90;;;;;;5032093;28;20037;-65
2021/12/23 04:26:11;;;;;;;4.57;2.70;;;20.10;44.80;;;;;;5031443;28;20041;-65
2021/12/23 04:28:46;;;;;;;3.90;2.70;;;20.10;44.80;;;;;;5032083;28;20120;-66
2021/12/23 04:31:16;;;;;;;4.53;2.70;;;20.10;44.80;;;;;;5019297;28;20072;-65
2021/12/23 04:33:43;;;;;;;5.55;3.20;;;20.10;44.80;;;;;;5032634;28;20046;-65
2021/12/23 04:36:08;;;;;;;4.10;2.90;;;20.10;44.80;;;;;;5031503;28;20045;-65
2021/12/23 04:38:36;;;;;;;5.40;3.10;;;20.20;44.80;;;;;;5015697;28;20045;-65
2021/12/23 04:41:01;;;;;;;4.27;3.07;;;20.10;44.70;;;;;;5031821;28;20049;-65
2021/12/23 04:43:27;;;;;;;4.15;2.75;;;20.10;44.80;;;;;;5032170;28;20124;-65
2021/12/23 04:45:52;;;;;;;5.38;2.97;;;20.10;44.70;;;;;;5030938;28;20100;-65
2021/12/23 04:48:18;;;;;;;4.03;2.75;;;20.10;44.60;;;;;;5032389;28;20438;-65
2021/12/23 04:50:43;;;;;;;4.70;2.97;;;20.10;44.60;;;;;;5031244;28;20417;-65
2021/12/23 04:53:09;;;;;;;4.65;2.78;;;20.10;44.80;;;;;;5032363;28;20076;-65
2021/12/23 04:55:34;;;;;;;3.90;2.70;;;20.10;44.60;;;;;;5032352;28;20045;-65
2021/12/23 04:58:00;;;;;;;5.57;3.05;;;20.10;44.60;;;;;;5031506;28;20111;-65
2021/12/23 05:00:26;;;;;;;2.92;2.15;;;20.10;44.70;;;;;;5031705;28;20046;-65
2021/12/23 05:02:51;;;;;;;4.35;3.00;;;20.20;44.80;;;;;;5030900;28;20374;-66
2021/12/23 05:05:17;;;;;;;4.32;2.58;;;20.10;44.70;;;;;;5029837;28;20049;-65
2021/12/23 05:07:43;;;;;;;4.45;2.28;;;20.10;44.70;;;;;;5032259;28;20132;-65
2021/12/23 05:10:09;;;;;;;6.03;2.78;;;20.10;44.60;;;;;;5036287;28;20045;-65
2021/12/23 05:12:41;;;;;;;4.20;2.97;;;20.20;44.70;;;;;;5034788;28;20103;-65
2021/12/23 05:15:08;;;;;;;4.43;2.90;;;20.20;44.70;;;;;;5025854;28;20486;-65
2021/12/23 05:17:33;;;;;;;3.78;2.47;;;20.20;44.70;;;;;;5016116;28;20096;-65
2021/12/23 05:19:59;;;;;;;3.72;2.60;;;20.20;44.70;;;;;;5014101;28;20455;-65
2021/12/23 05:22:24;;;;;;;3.83;2.40;;;20.20;44.70;;;;;;5030080;28;20046;-65
2021/12/23 05:24:51;;;;;;;4.30;2.55;;;20.20;44.70;;;;;;5035486;28;20087;-65
2021/12/23 05:27:17;;;;;;;4.22;2.90;;;20.20;44.70;;;;;;5035305;28;20398;-65
2021/12/23 05:29:42;;;;;;;3.63;2.65;;;20.20;44.70;;;;;;5035219;28;20040;-65
2021/12/23 05:32:08;;;;;;;4.03;2.70;;;20.20;44.70;;;;;;5035556;28;20045;-65
2021/12/23 05:34:33;;;;;;;4.07;2.50;;;20.20;44.70;;;;;;5034412;28;20103;-65
2021/12/23 05:36:59;;;;;;;4.53;2.50;;;20.20;44.80;;;;;;5034565;28;20094;-65
2021/12/23 05:39:24;;;;;;;4.97;2.60;;;20.20;44.80;;;;;;5035177;28;20056;-65
2021/12/23 05:41:50;;;;;;;3.67;2.45;;;20.20;44.80;;;;;;5050546;28;20093;-65
2021/12/23 05:44:15;;;;;;;3.72;2.42;;;20.20;44.80;;;;;;5034369;28;20049;-65
2021/12/23 05:46:41;;;;;;;4.43;2.40;;;20.20;44.80;;;;;;5032711;28;20050;-65
2021/12/23 05:49:07;;;;;;;4.00;2.40;;;20.20;44.90;;;;;;5034468;28;20054;-65
2021/12/23 05:51:32;;;;;;;3.65;2.20;;;20.20;44.90;;;;;;5035515;28;20072;-65
2021/12/23 05:53:58;;;;;;;4.43;2.97;;;20.10;44.80;;;;;;5045635;28;20092;-65
2021/12/23 05:56:23;;;;;;;3.33;2.47;;;20.20;44.80;;;;;;5014346;28;20050;-65
2021/12/23 05:58:49;;;;;;;4.03;2.75;;;20.20;44.80;;;;;;5030339;28;20050;-65
2021/12/23 06:01:14;;;;;;;4.00;2.70;;;20.20;44.90;;;;;;5024804;28;20107;-65
2021/12/23 06:03:40;;;;;;;3.78;2.55;;;20.20;44.90;;;;;;5048990;28;20046;-65
2021/12/23 06:06:05;;;;;;;4.45;2.40;;;20.20;44.90;;;;;;5033667;28;20045;-65
2021/12/23 06:08:31;;;;;;;3.55;2.60;;;20.20;44.90;;;;;;5032612;28;20095;-65
2021/12/23 06:10:56;;;;;;;4.97;2.67;;;20.20;44.90;;;;;;5024654;28;20042;-65
2021/12/23 06:13:22;;;;;;;4.40;2.63;;;20.20;44.90;;;;;;5017842;28;20477;-66
2021/12/23 06:15:47;;;;;;;4.40;2.72;;;20.20;44.90;;;;;;5033657;28;20382;-65
2021/12/23 06:18:13;;;;;;;4.50;2.67;;;20.20;44.80;;;;;;5050389;28;20132;-65
2021/12/23 06:20:38;;;;;;;5.05;2.58;;;20.20;44.80;;;;;;5034142;28;20452;-65
2021/12/23 06:23:05;;;;;;;4.22;2.50;;;20.20;44.80;;;;;;5048904;28;20120;-65
2021/12/23 06:25:31;;;;;;;3.92;2.75;;;20.20;44.80;;;;;;5049609;28;20053;-65
2021/12/23 06:27:56;;;;;;;4.07;2.78;;;20.20;44.90;;;;;;5034410;28;20140;-65
2021/12/23 06:30:22;;;;;;;4.15;2.78;;;20.20;44.90;;;;;;5032462;28;20046;-65
2021/12/23 06:32:49;;;;;;;4.43;2.72;;;20.20;44.80;;;;;;5029831;28;20045;-65
2021/12/23 06:35:15;;;;;;;4.60;2.97;;;20.20;44.80;;;;;;5014956;28;20034;-65
2021/12/23 06:37:41;;;;;;;3.20;2.33;;;20.20;44.80;;;;;;5029411;28;20394;-66
2021/12/23 06:40:07;;;;;;;4.22;2.72;;;20.20;44.80;;;;;;5014066;28;20364;-65
2021/12/23 06:42:32;;;;;;;3.47;2.67;;;20.20;44.80;;;;;;5014765;28;20132;-65
2021/12/23 06:44:58;;;;;;;4.50;2.60;;;20.20;44.80;;;;;;5033704;28;20128;-65
2021/12/23 06:47:23;;;;;;;3.53;2.22;;;20.20;44.90;;;;;;5034516;28;20067;-65
2021/12/23 06:49:49;;;;;;;4.47;2.85;;;20.20;44.80;;;;;;5032530;28;20410;-65
2021/12/23 06:52:14;;;;;;;5.72;2.65;;;20.20;44.70;;;;;;5033908;28;20481;-65
2021/12/23 06:54:46;;;;;;;3.53;2.33;;;20.20;44.70;;;;;;5033458;28;20045;-65
2021/12/23 06:57:11;;;;;;;4.25;2.78;;;20.20;44.70;;;;;;5016499;28;20049;-65
2021/12/23 06:59:37;;;;;;;4.18;2.40;;;20.20;44.70;;;;;;5031990;28;20056;-65
2021/12/23 07:02:03;;;;;;;5.10;2.70;;;20.20;44.70;;;;;;5034114;28;20049;-64
2021/12/23 07:04:32;;;;;;;3.90;2.70;;;20.20;44.70;;;;;;5032023;28;20034;-63
2021/12/23 07:07:09;;;;;;;4.72;3.38;;;20.20;44.70;;;;;;5032549;28;20129;-63
2021/12/23 07:09:43;;;;;;;6.07;2.72;;;20.20;44.60;;;;;;5033428;28;20052;-66
2021/12/23 07:12:10;;;;;;;4.03;2.83;;;20.20;44.60;;;;;;5032171;28;20037;-66
2021/12/23 07:14:36;;;;;;;3.90;2.72;;;20.20;44.60;;;;;;5033092;28;20045;-65
2021/12/23 07:17:02;;;;;;;5.80;3.00;;;20.20;44.60;;;;;;5032509;28;20156;-65
2021/12/23 07:19:27;;;;;;;4.30;2.90;;;20.20;44.60;;;;;;5032457;28;20505;-66
2021/12/23 07:21:53;;;;;;;5.38;2.67;;;20.20;44.60;;;;;;5033711;28;20589;-65
2021/12/23 07:24:18;;;;;;;4.22;3.08;;;20.20;44.60;;;;;;5032193;28;20084;-66
2021/12/23 07:26:44;;;;;;;6.97;2.63;;;20.20;44.60;;;;;;5033088;28;20045;-66
2021/12/23 07:29:09;;;;;;;3.70;2.58;;;20.20;44.70;;;;;;5034027;28;20052;-65
2021/12/23 07:31:35;;;;;;;4.88;2.50;;;20.20;44.70;;;;;;5031693;28;20045;-65
2021/12/23 07:34:00;;;;;;;6.47;2.85;;;20.20;44.80;;;;;;5032976;28;20077;-66
2021/12/23 07:36:27;;;;;;;5.03;2.90;;;20.20;44.90;;;;;;5049320;28;20437;-66
2021/12/23 07:38:53;;;;;;;5.18;3.03;;;20.20;45.00;;;;;;5033041;28;20046;-66
2021/12/23 07:41:19;;;;;;;5.65;2.88;;;20.20;45.10;;;;;;5033232;28;20052;-63
2021/12/23 07:43:57;;;;;;;3.85;2.75;;;20.20;45.40;;;;;;5032265;28;20041;-65
2021/12/23 07:46:23;;;;;;;4.47;2.53;;;20.30;45.70;;;;;;5032967;28;20042;-66
2021/12/23 07:48:49;;;;;;;4.68;2.65;;;20.30;45.90;;;;;;5033372;28;20116;-65
2021/12/23 07:51:14;;;;;;;4.30;2.60;;;20.30;45.90;;;;;;5033267;28;20553;-65
2021/12/23 07:53:40;;;;;;;7.20;2.92;;;20.30;46.10;;;;;;5031744;28;20053;-66
2021/12/23 07:56:05;;;;;;;7.97;2.45;;;20.30;46.20;;;;;;5033287;28;20052;-67
2021/12/23 07:58:31;;;;;;;5.55;2.83;;;20.30;46.30;;;;;;5048439;28;20152;-66
2021/12/23 08:00:57;;;;;;;5.32;2.60;;;20.30;46.50;;;;;;5032699;28;20049;-67
2021/12/23 08:03:22;;;;;;;4.57;2.45;;;20.30;46.60;;;;;;5033239;28;20132;-67
2021/12/23 08:05:48;;;;;;;4.45;2.90;;;20.30;46.60;;;;;;5032800;28;20133;-66
2021/12/23 08:08:14;;;;;;;4.28;2.33;;;20.30;46.70;;;;;;5032309;28;20049;-67
2021/12/23 08:10:39;;;;;;;5.18;2.65;;;20.30;46.80;;;;;;5047574;28;20048;-66
2021/12/23 08:13:07;;;;;;;4.97;3.03;;;20.30;46.90;;;;;;5032778;28;20041;-67
2021/12/23 08:15:33;;;;;;;4.95;2.60;;;20.30;46.60;;;;;;5047993;28;20041;-66
2021/12/23 08:17:58;;;;;;;6.03;2.53;;;20.30;46.60;;;;;;5031582;28;20477;-66
2021/12/23 08:20:24;;;;;;;5.15;3.30;;;20.30;46.80;;;;;;5031472;28;20080;-65
2021/12/23 08:22:49;;;;;;;4.13;2.75;;;20.30;46.80;;;;;;5031909;28;20048;-65
2021/12/23 08:25:15;;;;;;;4.32;2.60;;;20.30;46.90;;;;;;5031557;28;20550;-65
2021/12/23 08:27:41;;;;;;;6.20;2.67;;;20.40;47.00;;;;;;5032567;28;20047;-66
2021/12/23 08:30:08;;;;;;;6.20;2.88;;;20.40;47.00;;;;;;5031038;28;20090;-65
2021/12/23 08:32:33;;;;;;;4.90;3.08;;;20.40;46.90;;;;;;5032797;28;20060;-66
2021/12/23 08:34:59;;;;;;;3.97;2.50;;;20.40;46.90;;;;;;5047350;28;20038;-67
2021/12/23 08:37:24;;;;;;;4.93;2.60;;;20.40;46.90;;;;;;5031927;28;20049;-65
2021/12/23 08:39:51;;;;;;;6.25;3.25;;;20.30;46.80;;;;;;5032482;28;20497;-65
2021/12/23 08:42:16;;;;;;;4.72;2.70;;;20.30;46.70;;;;;;5030316;28;20505;-65
2021/12/23 08:44:42;;;;;;;5.80;3.25;;;20.40;46.70;;;;;;5032060;28;20100;-66
2021/12/23 08:47:08;;;;;;;4.60;2.83;;;20.40;46.60;;;;;;5031334;28;20053;-66
2021/12/23 08:49:34;;;;;;;4.30;2.58;;;20.40;46.70;;;;;;5032124;28;20137;-66
2021/12/23 08:51:59;;;;;;;5.28;3.10;;;20.40;46.60;;;;;;5031176;28;20464;-64
2021/12/23 08:54:25;;;;;;;4.78;2.90;;;20.40;46.70;;;;;;5032017;28;20461;-66
2021/12/23 08:56:50;;;;;;;7.22;3.15;;;20.40;46.80;;;;;;5031410;28;20044;-65
2021/12/23 08:59:17;;;;;;;4.50;2.75;;;20.40;46.80;;;;;;5031067;28;20064;-61
2021/12/23 09:01:42;;;;;;;4.35;3.05;;;20.40;46.70;;;;;;5030789;28;20120;-61
2021/12/23 09:04:08;;;;;;;4.80;3.03;;;20.40;46.60;;;;;;5032130;28;20128;-65
2021/12/23 09:06:33;;;;;;;4.68;2.90;;;20.40;46.50;;;;;;5030946;28;20080;-64
2021/12/23 09:08:59;;;;;;;5.68;3.20;;;20.40;46.50;;;;;;5030229;28;20394;-67
2021/12/23 09:11:25;;;;;;;5.25;3.08;;;20.40;46.50;;;;;;5031916;28;20120;-67
2021/12/23 09:13:51;;;;;;;4.28;3.00;;;20.40;46.60;;;;;;5031515;28;20064;-68
2021/12/23 09:16:16;;;;;;;5.60;2.90;;;20.40;46.60;;;;;;5038679;28;20095;-67
2021/12/23 09:18:42;;;;;;;6.13;2.97;;;20.40;46.60;;;;;;5030866;28;20038;-66
2021/12/23 09:21:07;;;;;;;5.88;3.15;;;20.40;46.70;;;;;;5038808;28;20180;-67
2021/12/23 09:23:33;;;;;;;4.13;2.90;;;20.40;46.50;;;;;;5031800;28;20041;-66
2021/12/23 09:25:58;;;;;;;4.75;3.08;;;20.40;46.60;;;;;;5029771;28;20044;-66
2021/12/23 09:33:33;;;;;;;5.07;3.05;;;20.40;46.60;;;;;;5031965;28;20054;-67
2021/12/23 09:35:59;;;;;;;5.53;3.20;;;20.40;46.60;;;;;;5030551;28;20116;-67
2021/12/23 09:38:27;;;;;;;5.20;2.72;;;20.40;46.60;;;;;;5030422;28;20041;-66
2021/12/23 09:41:00;;;;;;;7.88;3.50;;;20.40;46.50;;;;;;5030410;28;20111;-66
2021/12/23 09:43:26;;;;;;;5.18;3.35;;;20.40;46.60;;;;;;5032050;28;20057;-68
2021/12/23 09:45:52;;;;;;;7.18;3.22;;;20.40;46.40;;;;;;5029915;28;20134;-67
2021/12/23 09:48:21;;;;;;;5.25;3.10;;;20.40;46.40;;;;;;5030553;28;20068;-67
2021/12/23 09:50:47;;;;;;;5.43;3.40;;;20.40;46.50;;;;;;5029218;28;20057;-66
2021/12/23 09:53:18;;;;;;;4.75;2.47;;;20.40;46.80;;;;;;5032078;28;20046;-67
2021/12/23 09:55:44;;;;;;;4.25;3.05;;;20.40;46.90;;;;;;5018315;28;20110;-67
2021/12/23 09:58:09;;;;;;;5.63;3.63;;;20.40;46.90;;;;;;5034211;28;20049;-66
2021/12/23 10:00:36;;;;;;;6.63;3.10;;;20.40;47.10;;;;;;5035129;28;20045;-68
2021/12/23 10:03:02;;;;;;;4.75;2.90;;;20.40;47.20;;;;;;5033350;28;20045;-64
2021/12/23 10:05:28;;;;;;;4.90;3.00;;;20.40;47.10;;;;;;5034520;28;20034;-65
2021/12/23 10:07:55;;;;;;;5.50;2.78;;;20.40;47.10;;;;;;5033892;28;20053;-65
2021/12/23 10:10:26;;;;;;;4.25;2.95;;;20.40;47.00;;;;;;5035324;28;20129;-64
2021/12/23 10:37:55;;;;;;;6.05;3.35;;;20.50;47.10;;;;;;5034665;28;20045;-65
2021/12/23 10:40:20;;;;;;;8.80;3.35;;;20.40;47.10;;;;;;5017794;28;20045;-65
2021/12/23 10:42:50;;;;;;;7.53;3.53;;;20.50;47.20;;;;;;5053453;28;20041;-66
2021/12/23 10:45:16;;;;;;;5.78;3.50;;;20.50;47.40;;;;;;5053051;28;20052;-66
2021/12/23 10:48:06;;;;;;;8.55;3.50;;;20.50;47.50;;;;;;5054091;28;20166;-66
2021/12/23 10:50:49;;;;;;;9.13;3.88;;;20.50;47.70;;;;;;5053744;28;20124;-66
2021/12/23 10:53:39;;;;;;;7.28;3.50;;;20.50;47.70;;;;;;5053215;28;20052;-66
2021/12/23 10:59:09;;;;;;;6.25;3.60;;;20.50;47.90;;;;;;5054010;28;20064;-68
2021/12/23 11:01:40;;;;;;;6.25;3.20;;;20.50;47.80;;;;;;5054307;28;20481;-64
2021/12/23 11:04:06;;;;;;;5.07;3.00;;;20.50;47.80;;;;;;5053878;28;20128;-65
2021/12/23 11:06:38;;;;;;;6.60;3.03;;;20.50;47.80;;;;;;5053011;28;20397;-65
2021/12/23 11:27:18;;;;;;;6.78;3.78;;;20.50;47.80;;;;;;5053061;28;20493;-65
2021/12/23 11:29:01;;;;;;;6.97;3.50;;;20.50;47.80;;;;;;5032146;28;20046;-68
2021/12/23 11:37:36;;;;;;;5.68;3.75;;;20.50;47.80;;;;;;5038170;28;20045;-67
2021/12/23 11:39:32;;;;;;;5.45;3.63;;;20.50;47.80;;;;;;5033636;28;20049;-65
2021/12/23 11:42:03;;;;;;;7.47;3.33;;;20.50;47.80;;;;;;5033097;28;20048;-65
2021/12/23 11:44:31;;;;;;;6.20;3.85;;;20.60;47.80;;;;;;5048258;28;20140;-65
2021/12/23 11:47:03;;;;;;;6.25;3.60;;;20.60;47.70;;;;;;5032294;28;20050;-65
2021/12/23 11:49:29;;;;;;;5.72;3.50;;;20.50;47.50;;;;;;5033430;28;20056;-65
2021/12/23 11:51:55;;;;;;;5.90;3.42;;;20.50;47.50;;;;;;5033178;28;20053;-65
2021/12/23 11:54:30;;;;;;;5.47;3.72;;;20.50;47.50;;;;;;5032768;28;20049;-65
2021/12/23 11:57:16;;;;;;;5.45;3.45;;;20.60;47.50;;;;;;5032982;28;20128;-65
2021/12/23 11:59:44;;;;;;;5.57;3.60;;;20.50;47.30;;;;;;5047434;28;20052;-65
2021/12/23 12:02:13;;;;;;;;;;;20.50;47.40;;;;;;5033547;28;20401;-65
2021/12/23 12:04:39;;;;;;;6.88;3.70;;;20.50;47.20;;;;;;5032881;28;19975;-65
2021/12/23 12:07:18;;;;;;;6.43;3.80;;;20.50;47.30;;;;;;5047833;28;20053;-65
2021/12/23 12:09:55;;;;;;;8.93;4.30;;;20.50;47.20;;;;;;5032989;28;20061;-65
2021/12/23 12:12:21;;;;;;;5.20;3.47;;;20.50;47.20;;;;;;5032804;28;20076;-66
2021/12/23 12:14:47;;;;;;;7.10;3.53;;;20.50;47.20;;;;;;5032351;28;20065;-66
2021/12/23 12:17:30;;;;;;;5.88;3.53;;;20.50;47.20;;;;;;5033034;28;20037;-63
2021/12/23 12:20:22;;;;;;;6.43;3.88;;;20.50;47.30;;;;;;5031959;28;20099;-64
2021/12/23 12:22:51;;;;;;;7.53;3.83;;;20.50;47.40;;;;;;5031270;28;20038;-64
2021/12/23 12:25:23;;;;;;;7.45;3.92;;;20.50;47.50;;;;;;5031992;28;20402;-65
2021/12/23 12:27:49;;;;;;;6.35;3.70;;;20.50;47.70;;;;;;5030253;28;20038;-65
2021/12/23 12:30:17;;;;;;;6.90;3.25;;;20.50;47.80;;;;;;5032559;28;20053;-66
2021/12/23 12:32:43;;;;;;;;;;;20.50;47.90;;;;;;5032160;28;20493;-65
2021/12/23 12:35:14;;;;;;;6.75;3.60;;;20.50;48.00;;;;;;5030779;28;19925;-66
2021/12/23 12:37:41;;;;;;;5.18;3.63;;;20.50;48.10;;;;;;5031261;28;20047;-65
2021/12/23 12:40:08;;;;;;;7.35;4.00;;;20.60;48.10;;;;;;5032049;28;20045;-67
2021/12/23 12:42:37;;;;;;;7.95;3.45;;;20.60;48.20;;;;;;5031578;28;20033;-67
2021/12/23 12:45:09;;;;;;;7.18;3.78;;;20.60;48.20;;;;;;5030420;28;20056;-66
2021/12/23 12:47:39;;;;;;;6.78;3.50;;;20.60;48.30;;;;;;5029838;28;20421;-66
2021/12/23 12:50:13;;;;;;;6.50;3.78;;;20.60;48.40;;;;;;5036400;28;20490;-67
2021/12/23 12:52:46;;;;;;;7.13;4.00;;;20.60;48.50;;;;;;5032327;28;20091;-67
2021/12/23 12:55:13;;;;;;;5.68;3.75;;;20.60;48.50;;;;;;5031919;28;20103;-67
2021/12/23 12:57:46;;;;;;;5.80;3.38;;;20.60;48.60;;;;;;5030135;28;20124;-66
2021/12/23 13:00:15;;;;;;;6.72;3.58;;;20.60;48.70;;;;;;5031487;28;20037;-67
2021/12/23 13:02:41;;;;;;;5.95;3.45;;;20.60;48.70;;;;;;5040196;28;20042;-65
2021/12/23 13:05:08;;;;;;;6.20;3.40;;;20.60;48.60;;;;;;5029986;28;20044;-70
2021/12/23 13:07:38;;;;;;;5.88;3.38;;;20.60;48.50;;;;;;5029856;28;20054;-67
2021/12/23 13:10:15;;;;;;;6.63;3.50;;;20.60;48.30;;;;;;5029472;28;20048;-70
2021/12/23 13:12:51;;;;;;;5.88;3.67;;;20.70;48.30;;;;;;5030345;28;20128;-70
2021/12/23 13:15:22;;;;;;;6.57;3.83;;;20.70;48.20;;;;;;5031553;28;20100;-69
2021/12/23 13:17:54;;;;;;;6.95;4.32;;;20.70;48.10;;;;;;5027036;28;20038;-69
2021/12/23 13:20:30;;;;;;;6.45;4.60;;;20.60;47.80;;;;;;5028544;28;20050;-68
2021/12/23 13:23:01;;;;;;;5.85;4.00;;;20.70;47.60;;;;;;5031126;28;20073;-69
2021/12/23 13:25:27;;;;;;;7.15;4.00;;;20.70;47.60;;;;;;5030015;28;20037;-69
2021/12/23 13:27:52;;;;;;;7.30;4.32;;;20.70;47.60;;;;;;5030287;28;20096;-69
2021/12/23 13:30:18;;;;;;;6.07;4.13;;;20.70;47.60;;;;;;5034247;28;20107;-69
2021/12/23 13:33:01;;;;;;;6.95;4.35;;;20.70;47.60;;;;;;5041777;28;20087;-68
2021/12/23 13:35:26;;;;;;;6.93;4.15;;;20.70;47.50;;;;;;5016786;28;20057;-69
2021/12/23 13:37:52;;;;;;;6.70;4.35;;;20.70;47.60;;;;;;5035098;28;20055;-68
2021/12/23 13:40:32;;;;;;;8.00;4.60;;;20.70;47.50;;;;;;5034029;28;20077;-69
2021/12/23 13:42:57;;;;;;;9.60;4.45;;;20.70;47.50;;;;;;5039803;28;20126;-68
2021/12/23 13:45:23;;;;;;;7.15;4.18;;;20.70;47.50;;;;;;5033613;28;20120;-69
2021/12/23 13:47:55;;;;;;;6.72;3.95;;;20.70;47.50;;;;;;5033735;28;20402;-69